sensor_id;sensor_type;location;lat;lon;timestamp;pressure;altitude;pressure_sealevel;temperature;humidity
11542;BME280;5827;49.482;7.716;2023-02-03T00:00:09;100030.50;;;8.58;100.00
11542;BME280;5827;49.482;7.716;2023-02-03T00:02:11;100033.41;;;8.63;100.00
11542;BME280;5827;49.482;7.716;2023-02-03T00:04:12;100030.06;;;8.55;100.00
11542;BME280;5827;49.482;7.716;2023-02-03T00:06:15;100030.72;;;8.63;100.00
11542;BME280;5827;49.482;7.716;2023-02-03T00:08:17;100026.47;;;8.76;100.00
11542;BME280;5827;49.482;7.716;2023-02-03T00:10:21;100037.56;;;8.73;100.00
11542;BME280;5827;49.482;7.716;2023-02-03T00:12:23;100035.47;;;8.61;100.00
11542;BME280;5827;49.482;7.716;2023-02-03T00:14:25;100032.41;;;8.71;100.00
11542;BME280;5827;49.482;7.716;2023-02-03T00:16:26;100037.13;;;8.69;100.00
11542;BME280;5827;49.482;7.716;2023-02-03T00:18:28;100036.09;;;8.70;100.00
11542;BME280;5827;49.482;7.716;2023-02-03T00:20:29;100029.66;;;8.51;100.00
11542;BME280;5827;49.482;7.716;2023-02-03T00:22:32;100041.44;;;8.70;100.00
11542;BME280;5827;49.482;7.716;2023-02-03T00:24:34;100042.06;;;8.72;100.00
11542;BME280;5827;49.482;7.716;2023-02-03T00:26:41;100042.25;;;8.64;100.00
11542;BME280;5827;49.482;7.716;2023-02-03T00:28:43;100046.38;;;8.73;100.00
11542;BME280;5827;49.482;7.716;2023-02-03T00:30:44;100048.47;;;8.78;100.00
11542;BME280;5827;49.482;7.716;2023-02-03T00:32:46;100031.75;;;8.62;100.00
11542;BME280;5827;49.482;7.716;2023-02-03T00:34:47;100033.63;;;8.62;100.00
11542;BME280;5827;49.482;7.716;2023-02-03T00:36:49;100023.16;;;8.67;100.00
11542;BME280;5827;49.482;7.716;2023-02-03T00:38:50;100009.09;;;8.52;100.00
11542;BME280;5827;49.482;7.716;2023-02-03T00:40:53;100020.44;;;8.60;100.00
11542;BME280;5827;49.482;7.716;2023-02-03T00:42:56;100003.63;;;8.67;100.00
11542;BME280;5827;49.482;7.716;2023-02-03T00:44:57;100004.03;;;8.63;100.00
11542;BME280;5827;49.482;7.716;2023-02-03T00:46:59;100005.97;;;8.42;100.00
11542;BME280;5827;49.482;7.716;2023-02-03T00:49:01;100010.94;;;8.45;100.00
11542;BME280;5827;49.482;7.716;2023-02-03T00:51:03;100005.16;;;8.41;100.00
11542;BME280;5827;49.482;7.716;2023-02-03T00:53:04;100001.50;;;8.55;100.00
11542;BME280;5827;49.482;7.716;2023-02-03T00:55:07;100017.53;;;8.55;100.00
11542;BME280;5827;49.482;7.716;2023-02-03T00:57:09;100024.34;;;8.58;100.00
11542;BME280;5827;49.482;7.716;2023-02-03T00:59:11;100026.19;;;8.57;100.00
11542;BME280;5827;49.482;7.716;2023-02-03T01:01:13;100027.19;;;8.50;100.00
11542;BME280;5827;49.482;7.716;2023-02-03T01:03:15;100007.81;;;8.41;100.00
11542;BME280;5827;49.482;7.716;2023-02-03T01:05:17;99999.81;;;8.41;100.00
11542;BME280;5827;49.482;7.716;2023-02-03T01:07:18;100002.22;;;8.36;100.00
11542;BME280;5827;49.482;7.716;2023-02-03T01:09:20;100006.41;;;8.45;100.00
11542;BME280;5827;49.482;7.716;2023-02-03T01:11:23;100008.34;;;8.64;100.00
11542;BME280;5827;49.482;7.716;2023-02-03T01:13:26;100019.03;;;8.64;100.00
11542;BME280;5827;49.482;7.716;2023-02-03T01:15:29;100003.63;;;8.67;100.00
11542;BME280;5827;49.482;7.716;2023-02-03T01:17:31;100009.94;;;8.52;100.00
11542;BME280;5827;49.482;7.716;2023-02-03T01:19:32;100003.78;;;8.58;100.00
11542;BME280;5827;49.482;7.716;2023-02-03T01:21:34;99999.50;;;8.57;100.00
11542;BME280;5827;49.482;7.716;2023-02-03T01:23:36;99987.50;;;8.40;100.00
11542;BME280;5827;49.482;7.716;2023-02-03T01:25:38;99980.53;;;8.46;100.00
11542;BME280;5827;49.482;7.716;2023-02-03T01:27:39;99976.66;;;8.48;100.00
11542;BME280;5827;49.482;7.716;2023-02-03T01:29:41;99972.94;;;8.49;100.00
11542;BME280;5827;49.482;7.716;2023-02-03T01:31:44;99960.66;;;8.61;100.00
11542;BME280;5827;49.482;7.716;2023-02-03T01:33:45;99949.78;;;8.63;100.00
11542;BME280;5827;49.482;7.716;2023-02-03T01:35:47;99940.50;;;8.52;100.00
11542;BME280;5827;49.482;7.716;2023-02-03T01:37:49;99930.63;;;8.59;100.00
11542;BME280;5827;49.482;7.716;2023-02-03T01:39:50;99904.25;;;8.30;100.00
11542;BME280;5827;49.482;7.716;2023-02-03T01:41:53;99906.22;;;8.62;100.00
11542;BME280;5827;49.482;7.716;2023-02-03T01:43:57;99901.03;;;8.61;100.00
11542;BME280;5827;49.482;7.716;2023-02-03T01:46:00;99906.16;;;8.56;100.00
11542;BME280;5827;49.482;7.716;2023-02-03T01:48:04;99928.16;;;8.51;100.00
11542;BME280;5827;49.482;7.716;2023-02-03T01:50:10;99926.69;;;8.42;100.00
11542;BME280;5827;49.482;7.716;2023-02-03T01:52:14;99934.53;;;8.50;100.00
11542;BME280;5827;49.482;7.716;2023-02-03T01:54:20;99931.25;;;8.55;100.00
11542;BME280;5827;49.482;7.716;2023-02-03T01:56:24;99925.69;;;8.56;100.00
11542;BME280;5827;49.482;7.716;2023-02-03T01:58:31;99923.84;;;8.50;100.00
11542;BME280;5827;49.482;7.716;2023-02-03T02:00:34;99918.09;;;8.53;100.00
11542;BME280;5827;49.482;7.716;2023-02-03T02:02:35;99914.81;;;8.58;100.00
11542;BME280;5827;49.482;7.716;2023-02-03T02:04:52;99913.75;;;8.39;100.00
11542;BME280;5827;49.482;7.716;2023-02-03T02:06:56;99900.19;;;8.47;100.00
11542;BME280;5827;49.482;7.716;2023-02-03T02:08:58;99903.28;;;8.44;100.00
11542;BME280;5827;49.482;7.716;2023-02-03T02:11:01;99895.66;;;8.41;100.00
11542;BME280;5827;49.482;7.716;2023-02-03T02:13:04;99903.81;;;8.33;100.00
11542;BME280;5827;49.482;7.716;2023-02-03T02:15:07;99904.03;;;8.31;100.00
11542;BME280;5827;49.482;7.716;2023-02-03T02:17:16;99910.56;;;8.29;100.00
11542;BME280;5827;49.482;7.716;2023-02-03T02:22:05;99918.50;;;8.50;100.00
11542;BME280;5827;49.482;7.716;2023-02-03T02:24:41;99913.75;;;8.46;100.00
11542;BME280;5827;49.482;7.716;2023-02-03T02:26:56;99910.06;;;8.47;100.00
11542;BME280;5827;49.482;7.716;2023-02-03T02:29:18;99906.81;;;8.58;100.00
11542;BME280;5827;49.482;7.716;2023-02-03T02:32:04;99907.72;;;8.30;100.00
11542;BME280;5827;49.482;7.716;2023-02-03T02:34:14;99917.25;;;8.46;100.00
11542;BME280;5827;49.482;7.716;2023-02-03T02:36:29;99926.34;;;8.58;100.00
11542;BME280;5827;49.482;7.716;2023-02-03T02:38:39;99922.84;;;8.58;100.00
11542;BME280;5827;49.482;7.716;2023-02-03T02:40:50;99925.69;;;8.56;100.00
11542;BME280;5827;49.482;7.716;2023-02-03T02:43:02;99923.63;;;8.38;100.00
11542;BME280;5827;49.482;7.716;2023-02-03T02:45:10;99920.78;;;8.53;100.00
11542;BME280;5827;49.482;7.716;2023-02-03T02:47:18;99907.41;;;8.53;100.00
11542;BME280;5827;49.482;7.716;2023-02-03T02:49:25;99903.47;;;8.43;100.00
11542;BME280;5827;49.482;7.716;2023-02-03T02:51:29;99906.09;;;8.36;100.00
11542;BME280;5827;49.482;7.716;2023-02-03T02:53:34;99915.81;;;8.44;100.00
11542;BME280;5827;49.482;7.716;2023-02-03T02:55:39;99929.78;;;8.46;100.00
11542;BME280;5827;49.482;7.716;2023-02-03T02:57:43;99933.88;;;8.42;100.00
11542;BME280;5827;49.482;7.716;2023-02-03T02:59:47;99929.53;;;8.34;100.00
11542;BME280;5827;49.482;7.716;2023-02-03T03:01:48;99944.59;;;8.55;100.00
11542;BME280;5827;49.482;7.716;2023-02-03T03:03:51;99956.91;;;8.49;100.00
11542;BME280;5827;49.482;7.716;2023-02-03T03:05:56;99959.53;;;8.43;100.00
11542;BME280;5827;49.482;7.716;2023-02-03T03:08:00;99956.06;;;8.42;100.00
11542;BME280;5827;49.482;7.716;2023-02-03T03:10:07;99955.88;;;8.44;100.00
11542;BME280;5827;49.482;7.716;2023-02-03T03:12:14;99962.66;;;8.46;100.00
11542;BME280;5827;49.482;7.716;2023-02-03T03:14:19;99961.66;;;8.54;100.00
11542;BME280;5827;49.482;7.716;2023-02-03T03:16:24;99966.97;;;8.47;100.00
11542;BME280;5827;49.482;7.716;2023-02-03T03:18:29;99972.72;;;8.44;100.00
11542;BME280;5827;49.482;7.716;2023-02-03T03:20:35;99976.00;;;8.46;100.00
11542;BME280;5827;49.482;7.716;2023-02-03T03:22:44;99992.72;;;8.68;100.00
11542;BME280;5827;49.482;7.716;2023-02-03T03:24:53;100002.22;;;8.77;100.00
11542;BME280;5827;49.482;7.716;2023-02-03T03:27:00;100001.09;;;8.52;100.00
11542;BME280;5827;49.482;7.716;2023-02-03T03:29:08;100006.25;;;8.60;100.00
11542;BME280;5827;49.482;7.716;2023-02-03T03:31:11;100012.03;;;8.70;100.00
11542;BME280;5827;49.482;7.716;2023-02-03T03:33:12;100009.56;;;8.62;100.00
11542;BME280;5827;49.482;7.716;2023-02-03T03:35:14;100011.81;;;8.58;100.00
11542;BME280;5827;49.482;7.716;2023-02-03T03:37:23;100007.91;;;8.61;100.00
11542;BME280;5827;49.482;7.716;2023-02-03T03:39:34;99990.88;;;8.62;100.00
11542;BME280;5827;49.482;7.716;2023-02-03T03:41:42;99985.53;;;8.62;100.00
11542;BME280;5827;49.482;7.716;2023-02-03T03:43:48;99978.72;;;8.53;100.00
11542;BME280;5827;49.482;7.716;2023-02-03T03:45:53;99968.41;;;8.50;100.00
11542;BME280;5827;49.482;7.716;2023-02-03T03:47:59;99961.69;;;8.67;100.00
11542;BME280;5827;49.482;7.716;2023-02-03T03:50:07;99964.81;;;8.71;100.00
11542;BME280;5827;49.482;7.716;2023-02-03T03:52:13;99958.78;;;8.55;100.00
11542;BME280;5827;49.482;7.716;2023-02-03T03:54:22;99949.94;;;8.55;100.00
11542;BME280;5827;49.482;7.716;2023-02-03T03:56:27;99958.38;;;8.65;100.00
11542;BME280;5827;49.482;7.716;2023-02-03T03:58:31;99961.88;;;8.52;100.00
11542;BME280;5827;49.482;7.716;2023-02-03T04:00:36;99956.78;;;8.71;100.00
11542;BME280;5827;49.482;7.716;2023-02-03T04:02:41;99945.25;;;8.63;100.00
11542;BME280;5827;49.482;7.716;2023-02-03T04:04:45;99943.78;;;8.61;100.00
11542;BME280;5827;49.482;7.716;2023-02-03T04:06:46;99941.34;;;8.66;100.00
11542;BME280;5827;49.482;7.716;2023-02-03T04:08:48;99936.03;;;8.66;100.00
11542;BME280;5827;49.482;7.716;2023-02-03T04:10:51;99939.84;;;8.50;100.00
11542;BME280;5827;49.482;7.716;2023-02-03T04:12:52;99954.03;;;8.44;100.00
11542;BME280;5827;49.482;7.716;2023-02-03T04:14:53;99964.78;;;8.64;100.00
11542;BME280;5827;49.482;7.716;2023-02-03T04:16:54;99975.44;;;8.57;100.00
11542;BME280;5827;49.482;7.716;2023-02-03T04:18:56;99977.25;;;8.50;100.00
11542;BME280;5827;49.482;7.716;2023-02-03T04:20:58;99982.63;;;8.57;100.00
11542;BME280;5827;49.482;7.716;2023-02-03T04:22:59;99973.78;;;8.56;100.00
11542;BME280;5827;49.482;7.716;2023-02-03T04:25:01;99961.22;;;8.50;100.00
11542;BME280;5827;49.482;7.716;2023-02-03T04:27:03;99953.16;;;8.37;100.00
11542;BME280;5827;49.482;7.716;2023-02-03T04:29:05;99936.97;;;8.38;100.00
11542;BME280;5827;49.482;7.716;2023-02-03T04:31:06;99928.28;;;8.30;100.00
11542;BME280;5827;49.482;7.716;2023-02-03T04:33:08;99938.41;;;8.41;100.00
11542;BME280;5827;49.482;7.716;2023-02-03T04:35:10;99937.56;;;8.40;100.00
11542;BME280;5827;49.482;7.716;2023-02-03T04:37:11;99936.06;;;8.31;100.00
11542;BME280;5827;49.482;7.716;2023-02-03T04:39:13;99945.53;;;8.34;100.00
11542;BME280;5827;49.482;7.716;2023-02-03T04:41:14;99955.97;;;8.29;100.00
11542;BME280;5827;49.482;7.716;2023-02-03T04:43:17;99962.56;;;8.33;100.00
11542;BME280;5827;49.482;7.716;2023-02-03T04:45:19;99950.50;;;8.37;100.00
11542;BME280;5827;49.482;7.716;2023-02-03T04:47:20;99956.22;;;8.34;100.00
11542;BME280;5827;49.482;7.716;2023-02-03T04:49:22;99965.44;;;8.25;100.00
11542;BME280;5827;49.482;7.716;2023-02-03T04:51:23;99965.69;;;8.36;100.00
11542;BME280;5827;49.482;7.716;2023-02-03T04:53:25;99949.19;;;8.26;100.00
11542;BME280;5827;49.482;7.716;2023-02-03T04:55:26;99951.22;;;8.24;100.00
11542;BME280;5827;49.482;7.716;2023-02-03T04:57:28;99942.34;;;8.10;100.00
11542;BME280;5827;49.482;7.716;2023-02-03T04:59:31;99936.47;;;8.28;100.00
11542;BME280;5827;49.482;7.716;2023-02-03T05:01:33;99931.56;;;8.32;100.00
11542;BME280;5827;49.482;7.716;2023-02-03T05:03:35;99929.53;;;8.34;100.00
11542;BME280;5827;49.482;7.716;2023-02-03T05:05:36;99933.13;;;8.13;100.00
11542;BME280;5827;49.482;7.716;2023-02-03T05:07:38;99929.03;;;8.17;100.00
11542;BME280;5827;49.482;7.716;2023-02-03T05:09:39;99926.97;;;8.19;100.00
11542;BME280;5827;49.482;7.716;2023-02-03T05:11:41;99949.41;;;8.31;100.00
11542;BME280;5827;49.482;7.716;2023-02-03T05:13:42;99935.22;;;8.24;100.00
11542;BME280;5827;49.482;7.716;2023-02-03T05:15:45;99935.41;;;8.23;100.00
11542;BME280;5827;49.482;7.716;2023-02-03T05:17:47;99935.22;;;8.24;100.00
11542;BME280;5827;49.482;7.716;2023-02-03T05:19:48;99922.94;;;8.30;100.00
11542;BME280;5827;49.482;7.716;2023-02-03T05:21:50;99922.50;;;8.33;100.00
11542;BME280;5827;49.482;7.716;2023-02-03T05:23:51;99918.84;;;8.34;100.00
11542;BME280;5827;49.482;7.716;2023-02-03T05:25:53;99912.47;;;8.35;100.00
11542;BME280;5827;49.482;7.716;2023-02-03T05:27:54;99922.66;;;8.18;100.00
11542;BME280;5827;49.482;7.716;2023-02-03T05:29:56;99925.97;;;8.20;100.00
11542;BME280;5827;49.482;7.716;2023-02-03T05:31:59;99942.44;;;8.30;100.00
11542;BME280;5827;49.482;7.716;2023-02-03T05:34:00;99945.94;;;8.31;100.00
11542;BME280;5827;49.482;7.716;2023-02-03T05:36:02;99929.03;;;8.24;100.00
11542;BME280;5827;49.482;7.716;2023-02-03T05:38:04;99923.91;;;8.22;100.00
11542;BME280;5827;49.482;7.716;2023-02-03T05:40:06;99926.22;;;8.32;100.00
11542;BME280;5827;49.482;7.716;2023-02-03T05:42:26;99921.69;;;8.32;100.00
11542;BME280;5827;49.482;7.716;2023-02-03T05:44:27;99915.13;;;8.35;100.00
11542;BME280;5827;49.482;7.716;2023-02-03T05:46:29;99921.13;;;8.37;100.00
11542;BME280;5827;49.482;7.716;2023-02-03T05:48:32;99926.22;;;8.32;100.00
11542;BME280;5827;49.482;7.716;2023-02-03T05:50:35;99934.81;;;8.27;100.00
11542;BME280;5827;49.482;7.716;2023-02-03T05:52:36;99932.34;;;8.26;100.00
11542;BME280;5827;49.482;7.716;2023-02-03T05:54:38;99930.06;;;8.23;100.00
11542;BME280;5827;49.482;7.716;2023-02-03T05:56:40;99930.72;;;8.25;100.00
11542;BME280;5827;49.482;7.716;2023-02-03T05:58:42;99942.88;;;8.34;100.00
11542;BME280;5827;49.482;7.716;2023-02-03T06:00:43;99931.81;;;8.37;100.00
11542;BME280;5827;49.482;7.716;2023-02-03T06:02:45;99941.44;;;8.38;100.00
11542;BME280;5827;49.482;7.716;2023-02-03T06:04:47;99941.44;;;8.38;100.00
11542;BME280;5827;49.482;7.716;2023-02-03T06:06:49;99934.59;;;8.22;100.00
11542;BME280;5827;49.482;7.716;2023-02-03T06:08:50;99936.88;;;8.25;100.00
11542;BME280;5827;49.482;7.716;2023-02-03T06:10:58;99931.03;;;8.08;100.00
11542;BME280;5827;49.482;7.716;2023-02-03T06:13:07;99936.00;;;8.11;100.00
11542;BME280;5827;49.482;7.716;2023-02-03T06:15:09;99934.59;;;8.29;100.00
11542;BME280;5827;49.482;7.716;2023-02-03T06:17:11;99925.16;;;8.26;100.00
11542;BME280;5827;49.482;7.716;2023-02-03T06:19:12;99925.56;;;8.23;100.00
11542;BME280;5827;49.482;7.716;2023-02-03T06:21:15;99924.50;;;8.18;100.00
11542;BME280;5827;49.482;7.716;2023-02-03T06:23:17;99919.41;;;8.23;100.00
11542;BME280;5827;49.482;7.716;2023-02-03T06:25:19;99913.69;;;8.32;100.00
11542;BME280;5827;49.482;7.716;2023-02-03T06:27:21;99908.72;;;8.16;100.00
11542;BME280;5827;49.482;7.716;2023-02-03T06:29:22;99903.97;;;8.11;100.00
11542;BME280;5827;49.482;7.716;2023-02-03T06:31:24;99883.63;;;8.10;100.00
11542;BME280;5827;49.482;7.716;2023-02-03T06:33:25;99886.13;;;8.19;100.00
11542;BME280;5827;49.482;7.716;2023-02-03T06:35:27;99890.84;;;8.23;100.00
11542;BME280;5827;49.482;7.716;2023-02-03T06:37:30;99891.66;;;8.24;100.00
11542;BME280;5827;49.482;7.716;2023-02-03T06:39:31;99900.50;;;8.24;100.00
11542;BME280;5827;49.482;7.716;2023-02-03T06:41:33;99882.63;;;8.11;100.00
11542;BME280;5827;49.482;7.716;2023-02-03T06:43:34;99886.34;;;8.24;100.00
11542;BME280;5827;49.482;7.716;2023-02-03T06:45:36;99896.63;;;8.27;100.00
11542;BME280;5827;49.482;7.716;2023-02-03T06:47:38;99889.22;;;8.22;100.00
11542;BME280;5827;49.482;7.716;2023-02-03T06:49:40;99889.97;;;8.09;100.00
11542;BME280;5827;49.482;7.716;2023-02-03T06:51:41;99892.75;;;8.29;100.00
11542;BME280;5827;49.482;7.716;2023-02-03T06:53:44;99897.66;;;8.26;100.00
11542;BME280;5827;49.482;7.716;2023-02-03T06:55:46;99894.97;;;8.26;100.00
11542;BME280;5827;49.482;7.716;2023-02-03T06:57:48;99897.22;;;8.29;100.00
11542;BME280;5827;49.482;7.716;2023-02-03T06:59:49;99890.84;;;8.17;100.00
11542;BME280;5827;49.482;7.716;2023-02-03T07:01:51;99896.84;;;8.25;100.00
11542;BME280;5827;49.482;7.716;2023-02-03T07:03:53;99912.41;;;8.22;100.00
11542;BME280;5827;49.482;7.716;2023-02-03T07:05:57;99921.47;;;8.27;100.00
11542;BME280;5827;49.482;7.716;2023-02-03T07:07:58;99925.44;;;8.38;100.00
11542;BME280;5827;49.482;7.716;2023-02-03T07:10:01;99919.84;;;8.33;100.00
11542;BME280;5827;49.482;7.716;2023-02-03T07:12:03;99922.09;;;8.29;100.00
11542;BME280;5827;49.482;7.716;2023-02-03T07:14:05;99924.94;;;8.21;100.00
11542;BME280;5827;49.482;7.716;2023-02-03T07:16:06;99927.63;;;8.28;100.00
11542;BME280;5827;49.482;7.716;2023-02-03T07:18:08;99942.22;;;8.25;100.00
11542;BME280;5827;49.482;7.716;2023-02-03T07:20:10;99941.41;;;8.25;100.00
11542;BME280;5827;49.482;7.716;2023-02-03T07:22:12;99940.53;;;8.24;100.00
11542;BME280;5827;49.482;7.716;2023-02-03T07:24:13;99952.84;;;8.19;100.00
11542;BME280;5827;49.482;7.716;2023-02-03T07:26:16;99950.81;;;8.21;100.00
11542;BME280;5827;49.482;7.716;2023-02-03T07:28:18;99959.84;;;8.20;100.00
11542;BME280;5827;49.482;7.716;2023-02-03T07:30:20;99970.94;;;8.17;100.00
11542;BME280;5827;49.482;7.716;2023-02-03T07:32:22;99968.53;;;8.35;100.00
11542;BME280;5827;49.482;7.716;2023-02-03T07:34:23;99971.75;;;8.24;100.00
11542;BME280;5827;49.482;7.716;2023-02-03T07:36:25;99969.31;;;8.29;100.00
11542;BME280;5827;49.482;7.716;2023-02-03T07:38:28;99981.66;;;8.30;100.00
11542;BME280;5827;49.482;7.716;2023-02-03T07:40:30;99986.31;;;8.14;100.00
11542;BME280;5827;49.482;7.716;2023-02-03T07:42:32;99982.44;;;8.24;100.00
11542;BME280;5827;49.482;7.716;2023-02-03T07:44:34;99983.25;;;8.18;100.00
11542;BME280;5827;49.482;7.716;2023-02-03T07:46:35;99982.66;;;8.22;100.00
11542;BME280;5827;49.482;7.716;2023-02-03T07:48:39;99972.94;;;8.14;100.00
11542;BME280;5827;49.482;7.716;2023-02-03T07:50:41;99977.75;;;8.26;100.00
11542;BME280;5827;49.482;7.716;2023-02-03T07:52:43;99976.94;;;8.25;100.00
11542;BME280;5827;49.482;7.716;2023-02-03T07:54:44;99981.44;;;8.25;100.00
11542;BME280;5827;49.482;7.716;2023-02-03T07:56:46;99977.34;;;8.29;100.00
11542;BME280;5827;49.482;7.716;2023-02-03T07:58:51;99984.56;;;8.35;100.00
11542;BME280;5827;49.482;7.716;2023-02-03T08:00:52;99974.25;;;8.25;100.00
11542;BME280;5827;49.482;7.716;2023-02-03T08:02:54;99968.09;;;8.25;100.00
11542;BME280;5827;49.482;7.716;2023-02-03T08:04:55;99981.91;;;8.35;100.00
11542;BME280;5827;49.482;7.716;2023-02-03T08:06:57;99973.00;;;8.21;100.00
11542;BME280;5827;49.482;7.716;2023-02-03T08:08:59;99974.88;;;8.27;100.00
11542;BME280;5827;49.482;7.716;2023-02-03T08:11:01;99977.75;;;8.32;100.00
11542;BME280;5827;49.482;7.716;2023-02-03T08:13:02;99973.75;;;8.43;100.00
11542;BME280;5827;49.482;7.716;2023-02-03T08:15:06;99961.13;;;8.30;100.00
11542;BME280;5827;49.482;7.716;2023-02-03T08:17:08;99968.09;;;8.25;100.00
11542;BME280;5827;49.482;7.716;2023-02-03T08:19:09;99975.69;;;8.28;100.00
11542;BME280;5827;49.482;7.716;2023-02-03T08:21:11;99971.25;;;8.42;100.00
11542;BME280;5827;49.482;7.716;2023-02-03T08:23:13;99980.31;;;8.40;100.00
11542;BME280;5827;49.482;7.716;2023-02-03T08:25:14;99974.38;;;8.45;100.00
11542;BME280;5827;49.482;7.716;2023-02-03T08:27:17;99976.00;;;8.46;100.00
11542;BME280;5827;49.482;7.716;2023-02-03T08:29:19;99986.91;;;8.51;100.00
11542;BME280;5827;49.482;7.716;2023-02-03T08:31:22;99976.00;;;8.39;100.00
11542;BME280;5827;49.482;7.716;2023-02-03T08:33:24;99982.97;;;8.47;100.00
11542;BME280;5827;49.482;7.716;2023-02-03T08:35:25;99989.13;;;8.41;100.00
11542;BME280;5827;49.482;7.716;2023-02-03T08:37:27;99984.81;;;8.40;100.00
11542;BME280;5827;49.482;7.716;2023-02-03T08:39:31;99968.28;;;8.23;100.00
11542;BME280;5827;49.482;7.716;2023-02-03T08:41:33;99976.00;;;8.39;100.00
11542;BME280;5827;49.482;7.716;2023-02-03T08:43:34;99975.81;;;8.48;100.00
11542;BME280;5827;49.482;7.716;2023-02-03T08:45:37;99982.59;;;8.44;100.00
11542;BME280;5827;49.482;7.716;2023-02-03T08:47:40;99985.09;;;8.58;100.00
11542;BME280;5827;49.482;7.716;2023-02-03T08:49:42;99989.25;;;8.68;100.00
11542;BME280;5827;49.482;7.716;2023-02-03T08:51:44;99992.56;;;8.76;100.00
11542;BME280;5827;49.482;7.716;2023-02-03T08:53:46;99985.94;;;8.65;100.00
11542;BME280;5827;49.482;7.716;2023-02-03T08:55:47;100019.28;;;8.76;100.00
11542;BME280;5827;49.482;7.716;2023-02-03T08:57:49;100013.94;;;8.76;100.00
11542;BME280;5827;49.482;7.716;2023-02-03T08:59:50;99999.25;;;8.52;100.00
11542;BME280;5827;49.482;7.716;2023-02-03T09:01:52;100004.25;;;8.69;100.00
11542;BME280;5827;49.482;7.716;2023-02-03T09:03:55;99997.84;;;8.63;100.00
11542;BME280;5827;49.482;7.716;2023-02-03T09:05:57;99993.31;;;8.57;100.00
11542;BME280;5827;49.482;7.716;2023-02-03T09:07:59;99991.47;;;8.57;100.00
11542;BME280;5827;49.482;7.716;2023-02-03T09:10:01;99996.22;;;8.62;100.00
11542;BME280;5827;49.482;7.716;2023-02-03T09:12:04;99997.03;;;8.62;100.00
11542;BME280;5827;49.482;7.716;2023-02-03T09:14:06;99988.38;;;8.60;100.00
11542;BME280;5827;49.482;7.716;2023-02-03T09:16:08;99998.47;;;8.58;100.00
11542;BME280;5827;49.482;7.716;2023-02-03T09:18:09;99982.22;;;8.60;100.00
11542;BME280;5827;49.482;7.716;2023-02-03T09:20:12;99983.25;;;8.52;100.00
11542;BME280;5827;49.482;7.716;2023-02-03T09:22:14;99982.81;;;8.55;100.00
11542;BME280;5827;49.482;7.716;2023-02-03T09:24:16;99971.09;;;8.56;100.00
11542;BME280;5827;49.482;7.716;2023-02-03T09:26:18;99974.25;;;8.67;100.00
11542;BME280;5827;49.482;7.716;2023-02-03T09:28:19;99969.47;;;8.55;100.00
11542;BME280;5827;49.482;7.716;2023-02-03T09:30:21;99969.75;;;8.80;100.00
11542;BME280;5827;49.482;7.716;2023-02-03T09:32:23;99972.63;;;8.92;100.00
11542;BME280;5827;49.482;7.716;2023-02-03T09:34:24;99961.28;;;8.70;100.00
11542;BME280;5827;49.482;7.716;2023-02-03T09:36:27;99973.59;;;8.58;100.00
11542;BME280;5827;49.482;7.716;2023-02-03T09:38:30;99984.72;;;8.68;100.00
11542;BME280;5827;49.482;7.716;2023-02-03T09:40:33;99977.47;;;8.49;100.00
11542;BME280;5827;49.482;7.716;2023-02-03T09:42:50;99997.66;;;8.64;100.00
11542;BME280;5827;49.482;7.716;2023-02-03T09:45:05;99983.03;;;8.60;100.00
11542;BME280;5827;49.482;7.716;2023-02-03T09:47:11;99982.00;;;8.55;100.00
11542;BME280;5827;49.482;7.716;2023-02-03T09:49:18;99981.78;;;8.50;100.00
11542;BME280;5827;49.482;7.716;2023-02-03T09:51:24;99980.19;;;8.62;100.00
11542;BME280;5827;49.482;7.716;2023-02-03T09:53:33;99982.31;;;8.86;100.00
11542;BME280;5827;49.482;7.716;2023-02-03T09:55:38;99973.25;;;8.81;100.00
11542;BME280;5827;49.482;7.716;2023-02-03T09:57:44;99978.19;;;8.90;100.00
11542;BME280;5827;49.482;7.716;2023-02-03T09:59:48;99966.06;;;8.88;100.00
11542;BME280;5827;49.482;7.716;2023-02-03T10:01:55;99949.16;;;8.74;100.00
11542;BME280;5827;49.482;7.716;2023-02-03T10:04:02;99961.78;;;8.94;100.00
11542;BME280;5827;49.482;7.716;2023-02-03T10:06:13;99953.75;;;9.13;100.00
11542;BME280;5827;49.482;7.716;2023-02-03T10:08:23;99967.13;;;9.13;100.00
11542;BME280;5827;49.482;7.716;2023-02-03T10:10:37;99972.28;;;9.22;100.00
11542;BME280;5827;49.482;7.716;2023-02-03T10:12:56;99979.47;;;9.14;100.00
11542;BME280;5827;49.482;7.716;2023-02-03T10:15:10;99984.59;;;9.16;100.00
11542;BME280;5827;49.482;7.716;2023-02-03T10:17:25;99976.16;;;8.99;100.00
11542;BME280;5827;49.482;7.716;2023-02-03T10:21:56;99968.75;;;9.01;100.00
11542;BME280;5827;49.482;7.716;2023-02-03T10:23:59;99968.97;;;9.00;100.00
11542;BME280;5827;49.482;7.716;2023-02-03T10:26:05;99974.28;;;8.93;100.00
11542;BME280;5827;49.482;7.716;2023-02-03T10:28:14;99972.47;;;8.94;100.00
11542;BME280;5827;49.482;7.716;2023-02-03T10:30:19;99960.53;;;8.96;100.00
11542;BME280;5827;49.482;7.716;2023-02-03T10:32:23;99945.88;;;8.79;100.00
11542;BME280;5827;49.482;7.716;2023-02-03T10:34:25;99968.56;;;9.03;100.00
11542;BME280;5827;49.482;7.716;2023-02-03T10:36:35;99963.03;;;9.18;100.00
11542;BME280;5827;49.482;7.716;2023-02-03T10:38:46;99958.47;;;9.11;100.00
11542;BME280;5827;49.482;7.716;2023-02-03T10:40:51;99953.34;;;9.03;100.00
11542;BME280;5827;49.482;7.716;2023-02-03T10:42:54;99950.69;;;9.16;100.00
11542;BME280;5827;49.482;7.716;2023-02-03T10:45:14;99949.22;;;9.34;100.00
11542;BME280;5827;49.482;7.716;2023-02-03T10:47:24;99954.19;;;9.30;100.00
11542;BME280;5827;49.482;7.716;2023-02-03T10:49:27;99956.66;;;9.32;100.00
11542;BME280;5827;49.482;7.716;2023-02-03T10:51:34;99957.66;;;9.37;100.00
11542;BME280;5827;49.482;7.716;2023-02-03T10:53:37;99937.50;;;9.15;100.00
11542;BME280;5827;49.482;7.716;2023-02-03T10:55:38;99947.38;;;9.34;100.00
11542;BME280;5827;49.482;7.716;2023-02-03T10:57:40;99946.34;;;9.42;100.00
11542;BME280;5827;49.482;7.716;2023-02-03T10:59:45;99952.13;;;9.32;100.00
11542;BME280;5827;49.482;7.716;2023-02-03T11:01:48;99944.09;;;9.32;100.00
11542;BME280;5827;49.482;7.716;2023-02-03T11:04:00;99933.78;;;9.16;100.00
11542;BME280;5827;49.482;7.716;2023-02-03T11:06:05;99937.50;;;9.15;100.00
11542;BME280;5827;49.482;7.716;2023-02-03T11:08:13;99930.28;;;9.02;100.00